createdAt,value
2022-12-29T00:00:14.702Z,157.80
2022-12-29T00:02:43.315Z,223.80
2022-12-29T00:05:12.141Z,122.68
2022-12-29T00:07:42.019Z,167.02
2022-12-29T00:10:10.734Z,216.95
2022-12-29T00:12:56.623Z,113.57
2022-12-29T00:15:40.368Z,148.63
2022-12-29T00:18:09.247Z,131.25
2022-12-29T00:20:55.834Z,147.90
2022-12-29T00:23:43.091Z,200.18
2022-12-29T00:26:33.984Z,143.05
2022-12-29T00:29:20.166Z,107.90
2022-12-29T00:32:05.884Z,110.60
2022-12-29T00:34:51.694Z,144.18
2022-12-29T00:37:40.423Z,121.60
2022-12-29T00:40:28.541Z,119.28
2022-12-29T00:43:14.615Z,105.10
2022-12-29T00:45:43.429Z,115.25
2022-12-29T00:48:11.974Z,78.13
2022-12-29T00:50:39.317Z,107.97
2022-12-29T00:53:07.707Z,184.93
2022-12-29T00:55:41.430Z,205.02
2022-12-29T00:58:09.922Z,154.88
2022-12-29T01:00:38.281Z,117.75
2022-12-29T01:03:06.958Z,192.57
2022-12-29T01:05:38.773Z,211.20
2022-12-29T01:08:07.546Z,126.93
2022-12-29T01:10:35.044Z,117.28
2022-12-29T01:13:05.158Z,180.00
2022-12-29T01:15:33.542Z,202.00
2022-12-29T01:18:02.886Z,165.00
2022-12-29T01:20:31.366Z,170.30
2022-12-29T01:23:00.087Z,181.75
2022-12-29T01:25:28.556Z,108.00
2022-12-29T01:27:57.131Z,183.23
2022-12-29T01:30:27.063Z,101.22
2022-12-29T01:32:55.760Z,119.80
2022-12-29T01:35:24.399Z,191.30
2022-12-29T01:37:52.922Z,96.32
2022-12-29T01:40:22.136Z,149.05
2022-12-29T01:42:50.597Z,115.43
2022-12-29T01:45:20.003Z,138.63
2022-12-29T01:47:52.997Z,91.07
2022-12-29T01:50:24.553Z,77.90
2022-12-29T01:52:56.618Z,121.65
2022-12-29T01:55:25.787Z,141.13
2022-12-29T01:57:55.205Z,131.48
2022-12-29T02:00:23.793Z,100.65
2022-12-29T02:02:55.235Z,134.85
2022-12-29T02:05:36.893Z,91.65
2022-12-29T02:08:05.766Z,66.78
2022-12-29T02:10:36.027Z,105.22
2022-12-29T02:13:04.867Z,110.30
2022-12-29T02:15:39.339Z,101.50
2022-12-29T02:18:22.959Z,79.25
2022-12-29T02:21:45.779Z,85.80
2022-12-29T02:24:39.553Z,63.95
2022-12-29T02:27:44.500Z,69.88
2022-12-29T02:30:43.873Z,98.32
2022-12-29T02:33:24.006Z,67.30
2022-12-29T02:35:57.735Z,80.13
2022-12-29T02:38:34.601Z,87.85
2022-12-29T02:41:08.396Z,64.07
2022-12-29T02:43:40.760Z,90.78
2022-12-29T02:46:16.605Z,111.47
2022-12-29T02:48:48.151Z,94.03
2022-12-29T02:51:20.806Z,84.95
2022-12-29T02:54:07.045Z,73.18
2022-12-29T02:56:35.922Z,84.57
2022-12-29T02:59:04.592Z,64.85
2022-12-29T03:02:04.066Z,77.63
2022-12-29T03:04:37.401Z,86.80
2022-12-29T03:07:14.569Z,79.75
2022-12-29T03:09:57.430Z,73.03
2022-12-29T03:12:48.846Z,62.15
2022-12-29T03:15:40.474Z,81.60
2022-12-29T03:18:15.664Z,107.28
2022-12-29T03:20:48.053Z,80.68
2022-12-29T03:23:16.620Z,129.32
2022-12-29T03:25:47.279Z,63.97
2022-12-29T03:28:19.352Z,99.10
2022-12-29T03:30:48.843Z,99.03
2022-12-29T03:33:21.331Z,64.35
2022-12-29T03:35:52.399Z,79.90
2022-12-29T03:38:24.063Z,74.93
2022-12-29T03:40:54.380Z,101.32
2022-12-29T03:43:23.130Z,82.93
2022-12-29T03:45:51.766Z,76.22
2022-12-29T03:48:21.936Z,129.95
2022-12-29T03:50:50.761Z,83.10
2022-12-29T03:53:19.514Z,105.88
2022-12-29T03:55:48.096Z,108.72
2022-12-29T03:58:16.510Z,112.90
2022-12-29T04:00:46.931Z,91.97
2022-12-29T04:03:15.415Z,142.32
2022-12-29T04:05:45.736Z,101.85
2022-12-29T04:08:14.407Z,151.13
2022-12-29T04:10:43.136Z,88.45
2022-12-29T04:13:11.844Z,87.50
2022-12-29T04:15:40.340Z,119.22
2022-12-29T04:18:09.081Z,204.00
2022-12-29T04:20:55.222Z,108.55
2022-12-29T04:23:25.093Z,94.88
2022-12-29T04:25:53.476Z,115.68
2022-12-29T04:28:21.964Z,186.93
2022-12-29T04:30:50.873Z,112.85
2022-12-29T04:33:19.537Z,145.23
2022-12-29T04:35:48.862Z,186.95
2022-12-29T04:38:18.592Z,223.95
2022-12-29T04:40:48.912Z,198.52
2022-12-29T04:43:18.231Z,212.85
2022-12-29T04:45:47.649Z,193.30
2022-12-29T04:48:16.587Z,143.02
2022-12-29T04:50:45.528Z,179.02
2022-12-29T04:53:14.037Z,171.50
2022-12-29T04:55:42.526Z,173.10
2022-12-29T04:58:15.192Z,143.88
2022-12-29T05:00:47.725Z,153.52
2022-12-29T05:03:16.378Z,163.35
2022-12-29T05:05:46.955Z,145.30
2022-12-29T05:08:15.595Z,187.00
2022-12-29T05:10:47.272Z,181.60
2022-12-29T05:13:17.274Z,232.82
2022-12-29T05:15:49.875Z,166.88
2022-12-29T05:18:19.655Z,173.00
2022-12-29T05:20:48.390Z,128.23
2022-12-29T05:23:17.570Z,192.32
2022-12-29T05:25:47.616Z,169.07
2022-12-29T05:28:17.846Z,235.13
2022-12-29T05:30:49.744Z,272.70
2022-12-29T05:33:18.613Z,224.32
2022-12-29T05:35:47.349Z,182.18
2022-12-29T05:38:15.791Z,251.10
2022-12-29T05:40:44.859Z,283.58
2022-12-29T05:43:13.391Z,245.25
2022-12-29T05:45:43.207Z,244.05
2022-12-29T05:48:11.764Z,387.77
2022-12-29T05:50:40.350Z,198.13
2022-12-29T05:53:09.016Z,243.68
2022-12-29T05:55:37.558Z,249.27
2022-12-29T05:58:06.023Z,203.50
2022-12-29T06:00:34.512Z,197.20
2022-12-29T06:03:04.515Z,178.43
2022-12-29T06:05:32.975Z,196.02
2022-12-29T06:08:01.381Z,191.52
2022-12-29T06:10:29.834Z,108.70
2022-12-29T06:12:58.224Z,178.63
2022-12-29T06:15:26.718Z,196.13
2022-12-29T06:17:55.294Z,161.15
2022-12-29T06:20:25.162Z,168.80
2022-12-29T06:22:53.621Z,137.93
2022-12-29T06:25:22.138Z,145.30
2022-12-29T06:27:50.606Z,152.00
2022-12-29T06:30:19.322Z,181.27
2022-12-29T06:32:47.944Z,220.15
2022-12-29T06:35:16.630Z,130.18
2022-12-29T06:37:47.256Z,211.52
2022-12-29T06:40:15.816Z,136.93
2022-12-29T06:42:44.942Z,122.55
2022-12-29T06:45:13.395Z,248.73
2022-12-29T06:47:41.907Z,154.82
2022-12-29T06:50:10.799Z,216.45
2022-12-29T06:52:39.196Z,139.82
2022-12-29T06:55:09.691Z,151.93
2022-12-29T06:57:38.189Z,110.90
2022-12-29T07:00:09.040Z,163.52
2022-12-29T07:02:39.261Z,118.05
2022-12-29T07:05:11.233Z,97.35
2022-12-29T07:07:39.745Z,116.13
2022-12-29T07:10:10.232Z,100.22
2022-12-29T07:12:38.751Z,141.50
2022-12-29T07:15:08.149Z,136.48
2022-12-29T07:17:36.988Z,140.52
2022-12-29T07:20:06.191Z,178.23
2022-12-29T07:22:34.777Z,134.27
2022-12-29T07:25:04.205Z,228.68
2022-12-29T07:27:34.022Z,193.38
2022-12-29T07:30:12.424Z,203.80
2022-12-29T07:32:57.550Z,243.88
2022-12-29T07:35:26.230Z,144.52
2022-12-29T07:38:40.414Z,306.55
2022-12-29T07:41:09.232Z,94.43
2022-12-29T07:43:41.827Z,148.48
2022-12-29T07:46:54.391Z,145.07
2022-12-29T07:49:04.395Z,125.97
2022-12-29T07:51:36.105Z,107.57
2022-12-29T07:54:06.984Z,182.05
2022-12-29T07:56:37.655Z,207.32
2022-12-29T07:59:10.718Z,307.25
2022-12-29T08:01:46.982Z,113.60
2022-12-29T08:04:24.451Z,234.88
2022-12-29T08:06:55.581Z,216.45
2022-12-29T08:09:27.292Z,120.05
2022-12-29T08:11:57.487Z,228.82
2022-12-29T08:14:35.161Z,134.55
2022-12-29T08:17:05.999Z,111.55
2022-12-29T08:19:38.681Z,114.45
2022-12-29T08:22:08.975Z,121.47
2022-12-29T08:24:39.776Z,169.25
2022-12-29T08:27:18.044Z,137.73
2022-12-29T08:29:53.333Z,164.20
2022-12-29T08:32:24.489Z,247.27
2022-12-29T08:34:56.704Z,110.25
2022-12-29T08:37:31.481Z,167.23
2022-12-29T08:40:05.185Z,149.55
2022-12-29T08:42:35.907Z,204.77
2022-12-29T08:45:10.052Z,173.98
2022-12-29T08:47:38.716Z,172.85
2022-12-29T08:50:08.315Z,116.50
2022-12-29T08:52:37.064Z,173.93
2022-12-29T08:55:05.918Z,212.38
2022-12-29T08:57:34.524Z,262.10
2022-12-29T09:00:03.416Z,137.75
2022-12-29T09:02:33.702Z,277.67
2022-12-29T09:05:02.794Z,165.73
2022-12-29T09:07:31.315Z,169.63
2022-12-29T09:10:00.130Z,292.85
2022-12-29T09:12:34.478Z,211.13
2022-12-29T09:15:05.286Z,402.48
2022-12-29T09:17:46.547Z,275.85
2022-12-29T09:20:16.136Z,366.67
2022-12-29T09:22:45.238Z,131.60
2022-12-29T09:25:14.574Z,174.90
2022-12-29T09:27:43.057Z,162.68
2022-12-29T09:30:15.664Z,209.00
2022-12-29T09:32:48.589Z,139.70
2022-12-29T09:35:20.129Z,160.27
2022-12-29T09:37:55.999Z,183.80
2022-12-29T09:40:32.012Z,154.65
2022-12-29T09:43:32.002Z,241.52
2022-12-29T09:46:07.951Z,176.55
2022-12-29T09:48:41.588Z,380.67
2022-12-29T09:51:14.215Z,213.50
2022-12-29T09:53:46.709Z,197.05
2022-12-29T09:56:18.272Z,298.42
2022-12-29T09:58:52.657Z,297.02
2022-12-29T10:01:29.223Z,200.45
2022-12-29T10:04:00.052Z,177.75
2022-12-29T10:06:32.657Z,183.25
2022-12-29T10:09:05.443Z,196.85
2022-12-29T10:12:00.997Z,205.15
2022-12-29T10:14:41.734Z,174.63
2022-12-29T10:17:19.754Z,197.25
2022-12-29T10:20:21.683Z,434.85
2022-12-29T10:23:15.003Z,177.55
2022-12-29T10:25:45.462Z,199.43
2022-12-29T10:28:23.377Z,228.35
2022-12-29T10:30:54.577Z,216.50
2022-12-29T10:33:26.441Z,273.88
2022-12-29T10:35:56.550Z,237.32
2022-12-29T10:38:29.755Z,228.70
2022-12-29T10:41:02.713Z,225.38
2022-12-29T10:43:32.298Z,248.75
2022-12-29T10:46:04.300Z,217.15
2022-12-29T10:48:34.410Z,210.70
2022-12-29T10:51:06.609Z,237.88
2022-12-29T10:53:39.829Z,241.98
2022-12-29T10:56:15.572Z,243.02
2022-12-29T10:58:49.390Z,222.63
2022-12-29T11:01:19.437Z,258.08
2022-12-29T11:04:00.060Z,316.95
2022-12-29T11:06:31.352Z,254.23
2022-12-29T11:09:02.012Z,257.17
2022-12-29T11:11:35.916Z,218.02
2022-12-29T11:14:12.448Z,250.38
2022-12-29T11:16:42.313Z,218.93
2022-12-29T11:19:23.750Z,252.77
2022-12-29T11:21:54.100Z,214.68
2022-12-29T11:24:25.224Z,206.50
2022-12-29T11:26:58.341Z,272.40
2022-12-29T11:29:29.278Z,254.02
2022-12-29T11:32:00.252Z,208.10
2022-12-29T11:34:33.676Z,261.65
2022-12-29T11:37:07.079Z,245.40
2022-12-29T11:39:39.824Z,361.25
2022-12-29T11:42:14.333Z,388.70
2022-12-29T11:47:24.507Z,202.57
2022-12-29T11:49:54.487Z,288.65
2022-12-29T11:52:26.889Z,373.83
2022-12-29T11:54:56.268Z,377.45
2022-12-29T11:57:27.891Z,262.58
2022-12-29T11:59:57.343Z,409.98
2022-12-29T12:02:44.650Z,303.95
2022-12-29T12:05:28.681Z,287.50
2022-12-29T12:08:02.026Z,212.73
2022-12-29T12:10:33.418Z,238.27
2022-12-29T12:13:08.436Z,275.17
2022-12-29T12:15:45.993Z,334.77
2022-12-29T12:18:24.119Z,224.43
2022-12-29T12:20:56.836Z,495.90
2022-12-29T12:23:35.064Z,454.70
2022-12-29T12:26:12.050Z,334.45
2022-12-29T12:28:45.328Z,343.40
2022-12-29T12:31:21.068Z,286.80
2022-12-29T12:33:53.072Z,333.52
2022-12-29T12:36:38.716Z,450.33
2022-12-29T12:39:13.897Z,604.47
2022-12-29T12:41:50.117Z,460.27
2022-12-29T12:44:23.269Z,502.80
2022-12-29T12:47:12.980Z,397.52
2022-12-29T12:50:08.571Z,519.10
2022-12-29T12:52:49.375Z,525.45
2022-12-29T12:55:37.445Z,569.88
2022-12-29T12:58:14.178Z,560.33
2022-12-29T13:00:51.846Z,572.50
2022-12-29T13:03:28.203Z,470.27
2022-12-29T13:06:11.856Z,465.85
2022-12-29T13:09:03.307Z,606.35
2022-12-29T13:11:46.374Z,402.52
2022-12-29T13:14:23.024Z,349.10
2022-12-29T13:16:56.188Z,424.80
2022-12-29T13:19:28.977Z,670.03
2022-12-29T13:22:07.203Z,695.05
2022-12-29T13:24:43.323Z,479.67
2022-12-29T13:27:18.963Z,489.45
2022-12-29T13:29:53.183Z,448.48
2022-12-29T13:32:31.342Z,446.77
2022-12-29T13:35:09.597Z,401.08
2022-12-29T13:37:46.433Z,438.10
2022-12-29T13:40:18.389Z,502.83
2022-12-29T13:42:50.058Z,517.08
2022-12-29T13:45:57.267Z,495.17
2022-12-29T13:48:31.603Z,485.42
2022-12-29T13:51:03.047Z,473.65
2022-12-29T13:53:40.001Z,479.58
2022-12-29T13:56:12.222Z,492.58
2022-12-29T13:58:47.406Z,436.13
2022-12-29T14:01:19.943Z,657.20
2022-12-29T14:04:25.485Z,577.08
2022-12-29T14:07:05.208Z,543.35
2022-12-29T14:09:57.534Z,540.45
2022-12-29T14:12:33.603Z,433.83
2022-12-29T14:15:24.106Z,465.92
2022-12-29T14:18:14.140Z,435.35
2022-12-29T14:20:52.362Z,421.92
2022-12-29T14:23:31.212Z,412.02
2022-12-29T14:26:13.265Z,513.35
2022-12-29T14:28:43.521Z,484.40
2022-12-29T14:31:41.813Z,416.30
2022-12-29T14:34:31.123Z,487.45
2022-12-29T14:37:01.075Z,503.20
2022-12-29T14:39:35.064Z,490.23
2022-12-29T14:42:06.099Z,480.55
2022-12-29T14:44:35.333Z,446.73
2022-12-29T14:47:09.025Z,448.08
2022-12-29T14:49:44.433Z,423.80
2022-12-29T14:52:18.708Z,432.08
2022-12-29T14:54:55.776Z,422.70
2022-12-29T14:57:36.618Z,426.73
2022-12-29T15:00:10.823Z,436.48
2022-12-29T15:02:43.090Z,374.80
2022-12-29T15:05:34.308Z,381.33
2022-12-29T15:08:03.361Z,372.67
2022-12-29T15:10:38.970Z,609.38
2022-12-29T15:13:15.504Z,372.23
2022-12-29T15:15:44.197Z,330.00
2022-12-29T15:18:26.006Z,395.00
2022-12-29T15:20:57.224Z,453.70
2022-12-29T15:23:26.405Z,456.75
2022-12-29T15:25:57.893Z,416.95
2022-12-29T15:28:27.469Z,369.33
2022-12-29T15:30:57.514Z,360.05
2022-12-29T15:33:30.105Z,338.77
2022-12-29T15:36:04.406Z,420.17
2022-12-29T15:38:39.983Z,290.52
2022-12-29T15:41:15.546Z,311.50
2022-12-29T15:43:54.133Z,328.95
2022-12-29T15:46:22.712Z,529.45
2022-12-29T15:48:52.657Z,320.17
2022-12-29T15:51:23.020Z,316.48
2022-12-29T15:53:52.782Z,327.08
2022-12-29T15:56:21.357Z,452.42
2022-12-29T15:58:52.354Z,308.40
2022-12-29T16:01:22.966Z,384.02
2022-12-29T16:03:53.886Z,367.17
2022-12-29T16:06:32.082Z,358.55
2022-12-29T16:09:03.537Z,357.75
2022-12-29T16:11:35.591Z,325.98
2022-12-29T16:14:08.222Z,305.02
2022-12-29T16:16:40.242Z,470.25
2022-12-29T16:19:15.969Z,623.75
2022-12-29T16:21:45.149Z,305.58
2022-12-29T16:24:17.106Z,380.02
2022-12-29T16:26:50.364Z,497.33
2022-12-29T16:29:19.132Z,391.95
2022-12-29T16:32:01.301Z,370.90
2022-12-29T16:34:33.931Z,388.38
2022-12-29T16:37:03.960Z,463.23
2022-12-29T16:39:35.300Z,520.08
2022-12-29T16:42:04.096Z,460.70
2022-12-29T16:44:33.293Z,383.42
2022-12-29T16:47:18.777Z,398.30
2022-12-29T16:49:52.915Z,620.05
2022-12-29T16:52:23.538Z,536.10
2022-12-29T16:54:56.107Z,395.30
2022-12-29T16:57:27.186Z,393.73
2022-12-29T16:59:57.952Z,431.48
2022-12-29T17:02:29.396Z,438.35
2022-12-29T17:05:00.161Z,405.85
2022-12-29T17:07:29.803Z,490.65
2022-12-29T17:09:58.439Z,463.67
2022-12-29T17:12:29.812Z,389.15
2022-12-29T17:14:58.985Z,408.20
2022-12-29T17:17:33.523Z,602.38
2022-12-29T17:22:34.152Z,400.65
2022-12-29T17:25:04.126Z,406.00
2022-12-29T17:27:35.995Z,483.80
2022-12-29T17:30:07.131Z,465.23
2022-12-29T17:32:35.735Z,451.20
2022-12-29T17:35:06.141Z,430.20
2022-12-29T17:37:37.234Z,446.83
2022-12-29T17:40:08.202Z,454.38
2022-12-29T17:42:40.657Z,420.50
2022-12-29T17:45:16.596Z,410.23
2022-12-29T17:47:45.444Z,431.63
2022-12-29T17:50:16.938Z,413.50
2022-12-29T17:52:47.449Z,420.48
2022-12-29T17:55:18.724Z,459.95
2022-12-29T17:57:47.401Z,601.92
2022-12-29T18:00:20.068Z,441.20
2022-12-29T18:02:49.327Z,429.20
2022-12-29T18:05:22.648Z,406.70
2022-12-29T18:07:52.443Z,464.38
2022-12-29T18:10:21.028Z,444.73
2022-12-29T18:12:51.332Z,448.13
2022-12-29T18:15:22.153Z,431.17
2022-12-29T18:17:51.100Z,418.15
2022-12-29T18:20:21.013Z,494.63
2022-12-29T18:22:49.620Z,572.83
2022-12-29T18:25:24.990Z,479.50
2022-12-29T18:27:53.652Z,439.00
2022-12-29T18:30:22.213Z,433.40
2022-12-29T18:32:50.790Z,451.63
2022-12-29T18:35:23.989Z,456.13
2022-12-29T18:37:52.426Z,601.10
2022-12-29T18:40:21.073Z,494.40
2022-12-29T18:42:49.409Z,467.40
2022-12-29T18:45:20.060Z,550.92
2022-12-29T18:47:48.607Z,497.42
2022-12-29T18:50:17.599Z,514.05
2022-12-29T18:52:47.825Z,488.58
2022-12-29T18:55:18.906Z,480.52
2022-12-29T18:57:47.655Z,505.33
2022-12-29T19:00:17.779Z,475.48
2022-12-29T19:02:46.901Z,490.63
2022-12-29T19:05:26.141Z,535.00
2022-12-29T19:07:56.333Z,513.72
2022-12-29T19:10:26.542Z,502.98
2022-12-29T19:12:55.138Z,462.58
2022-12-29T19:15:26.091Z,494.13
2022-12-29T19:18:32.968Z,546.38
2022-12-29T19:20:46.324Z,495.42
2022-12-29T19:23:18.249Z,539.13
2022-12-29T19:25:47.664Z,439.27
2022-12-29T19:28:19.430Z,450.70
2022-12-29T19:30:52.341Z,507.55
2022-12-29T19:33:22.021Z,531.45
2022-12-29T19:35:51.044Z,548.72
2022-12-29T19:38:21.119Z,498.70
2022-12-29T19:40:51.336Z,515.80
2022-12-29T19:43:20.735Z,526.03
2022-12-29T19:45:49.359Z,522.75
2022-12-29T19:48:23.294Z,487.50
2022-12-29T19:50:51.889Z,543.15
2022-12-29T19:53:21.807Z,525.03
2022-12-29T19:55:50.211Z,511.08
2022-12-29T19:58:19.028Z,524.47
2022-12-29T20:00:47.652Z,523.55
2022-12-29T20:03:16.271Z,533.83
2022-12-29T20:05:51.514Z,461.08
2022-12-29T20:08:21.564Z,528.83
2022-12-29T20:10:59.658Z,512.53
2022-12-29T20:13:28.133Z,470.75
2022-12-29T20:16:00.838Z,431.27
2022-12-29T20:18:29.640Z,524.78
2022-12-29T20:21:03.854Z,549.42
2022-12-29T20:23:34.408Z,468.67
2022-12-29T20:26:03.369Z,455.27
2022-12-29T20:28:31.825Z,541.17
2022-12-29T20:31:02.728Z,608.58
2022-12-29T20:33:32.658Z,510.13
2022-12-29T20:36:07.402Z,477.52
2022-12-29T20:38:38.270Z,498.75
2022-12-29T20:41:06.848Z,507.63
2022-12-29T20:51:08.975Z,512.97
2022-12-29T20:53:40.384Z,421.10
2022-12-29T20:56:11.485Z,493.63
2022-12-29T20:59:00.246Z,467.25
2022-12-29T21:01:28.589Z,447.92
2022-12-29T21:03:57.199Z,487.45
2022-12-29T21:06:25.688Z,487.27
2022-12-29T21:08:55.723Z,486.10
2022-12-29T21:11:24.432Z,419.10
2022-12-29T21:13:53.028Z,454.00
2022-12-29T21:16:21.830Z,499.92
2022-12-29T21:18:50.777Z,487.52
2022-12-29T21:21:21.250Z,523.63
2022-12-29T21:23:49.818Z,518.40
2022-12-29T21:26:21.307Z,450.48
2022-12-29T21:28:50.045Z,514.65
2022-12-29T21:31:26.091Z,508.40
2022-12-29T21:33:55.203Z,555.40
2022-12-29T21:36:24.095Z,497.40
2022-12-29T21:38:52.926Z,478.75
2022-12-29T21:41:23.582Z,513.25
2022-12-29T21:44:06.430Z,496.73
2022-12-29T21:46:35.672Z,434.77
2022-12-29T21:49:04.961Z,475.63
2022-12-29T21:51:51.676Z,454.67
2022-12-29T21:54:38.956Z,470.02
2022-12-29T21:57:09.766Z,463.23
2022-12-29T21:59:55.494Z,487.63
2022-12-29T22:02:43.361Z,461.75
2022-12-29T22:05:31.066Z,472.92
2022-12-29T22:08:17.166Z,500.13
2022-12-29T22:11:05.112Z,434.48
2022-12-29T22:13:36.507Z,463.50
2022-12-29T22:16:05.888Z,415.92
2022-12-29T22:18:34.953Z,472.20
2022-12-29T22:21:05.977Z,377.88
2022-12-29T22:23:34.675Z,484.55
2022-12-29T22:26:05.728Z,427.48
2022-12-29T22:28:37.878Z,450.35
2022-12-29T22:31:07.006Z,344.40
2022-12-29T22:33:35.512Z,387.75
2022-12-29T22:36:04.335Z,427.23
2022-12-29T22:38:32.844Z,355.08
2022-12-29T22:41:01.368Z,435.67
2022-12-29T22:43:30.640Z,476.75
2022-12-29T22:46:05.340Z,370.25
2022-12-29T22:48:34.021Z,437.17
2022-12-29T22:51:02.834Z,465.88
2022-12-29T22:53:31.850Z,377.98
2022-12-29T22:56:04.864Z,396.13
2022-12-29T22:58:33.287Z,408.63
2022-12-29T23:01:03.368Z,343.30
2022-12-29T23:03:33.150Z,358.85
2022-12-29T23:06:02.319Z,375.58
2022-12-29T23:08:33.655Z,433.88
2022-12-29T23:11:02.351Z,339.40
2022-12-29T23:13:30.886Z,352.27
2022-12-29T23:15:59.445Z,391.90
2022-12-29T23:18:28.417Z,394.60
2022-12-29T23:20:58.239Z,430.13
2022-12-29T23:23:48.839Z,414.52
2022-12-29T23:26:18.536Z,419.48
2022-12-29T23:28:47.059Z,386.88
2022-12-29T23:31:15.979Z,419.45
2022-12-29T23:33:44.516Z,369.58
2022-12-29T23:36:14.508Z,403.92
2022-12-29T23:38:43.382Z,459.88
2022-12-29T23:41:12.360Z,435.58
2022-12-29T23:43:41.082Z,363.65
2022-12-29T23:46:10.736Z,363.33
2022-12-29T23:48:39.383Z,390.90
2022-12-29T23:51:08.510Z,361.92
2022-12-29T23:53:39.611Z,394.42
2022-12-29T23:56:09.652Z,400.67
2022-12-29T23:58:38.447Z,373.45
